Time;durP1;ratioP1;P1;durP2;ratioP2;P2;SDS_P1;SDS_P2;PMS_P1;PMS_P2;Temp;Humidity;BMP_temperature;BMP_pressure;BME280_temperature;BME280_humidity;BME280_pressure;Samples;Min_cycle;Max_cycle;Signal;HPM_P1;HPM_P2
2023/02/18 00:01:25;;;;;;;0.98;0.50;;;;;;;;;;5031034;28;20104;-59
2023/02/18 00:03:51;;;;;;;1.33;0.70;;;;;;;;;;5031245;28;20032;-60
2023/02/18 00:06:22;;;;;;;1.20;0.50;;;;;;;;;;5031313;28;20024;-60
2023/02/18 00:08:48;;;;;;;2.72;0.60;;;;;;;;;;5031160;28;20045;-60
2023/02/18 00:11:15;;;;;;;1.67;0.60;;;;;;;;;;5030708;28;20033;-60
2023/02/18 00:13:41;;;;;;;1.38;0.60;;;;;;;;;;5030849;28;20029;-59
2023/02/18 00:16:09;;;;;;;1.30;0.50;;;;;;;;;;5030987;28;20552;-60
2023/02/18 00:18:36;;;;;;;1.10;0.68;;;;;;;;;;5030576;28;20040;-60
2023/02/18 00:21:06;;;;;;;0.88;0.52;;;;;;;;;;5030936;28;20029;-60
2023/02/18 00:23:32;;;;;;;1.13;0.50;;;;;;;;;;5030721;28;20026;-60
2023/02/18 00:26:02;;;;;;;1.10;0.45;;;;;;;;;;5030971;28;20062;-60
2023/02/18 00:28:28;;;;;;;7.68;0.60;;;;;;;;;;5030656;28;20032;-60
2023/02/18 00:30:54;;;;;;;0.70;0.40;;;;;;;;;;5030879;28;20037;-60
2023/02/18 00:33:20;;;;;;;1.00;0.50;;;;;;;;;;5030309;28;20026;-60
2023/02/18 00:35:46;;;;;;;1.20;0.50;;;;;;;;;;5030956;28;20033;-60
2023/02/18 00:38:12;;;;;;;2.03;0.57;;;;;;;;;;5030851;28;20493;-60
2023/02/18 00:40:38;;;;;;;3.35;0.50;;;;;;;;;;5030568;28;20025;-60
2023/02/18 00:43:04;;;;;;;2.80;0.70;;;;;;;;;;5030833;28;20482;-60
2023/02/18 00:45:30;;;;;;;1.40;0.47;;;;;;;;;;5030521;28;20079;-60
2023/02/18 00:47:56;;;;;;;1.10;0.45;;;;;;;;;;5030464;28;20025;-60
2023/02/18 00:50:22;;;;;;;1.15;0.40;;;;;;;;;;5030485;28;20367;-60
2023/02/18 00:52:48;;;;;;;1.17;0.40;;;;;;;;;;5031108;28;20029;-60
2023/02/18 00:55:14;;;;;;;0.65;0.40;;;;;;;;;;5030739;28;20021;-60
2023/02/18 00:57:40;;;;;;;1.05;0.40;;;;;;;;;;5030464;28;20029;-60
2023/02/18 01:00:07;;;;;;;0.90;0.40;;;;;;;;;;5030590;28;20025;-60
2023/02/18 01:02:33;;;;;;;2.65;0.40;;;;;;;;;;5030339;28;20025;-60
2023/02/18 01:05:00;;;;;;;1.02;0.40;;;;;;;;;;5030004;28;20547;-60
2023/02/18 01:07:26;;;;;;;1.15;0.50;;;;;;;;;;5030405;28;20048;-60
2023/02/18 01:09:52;;;;;;;1.00;0.40;;;;;;;;;;5033263;28;20068;-60
2023/02/18 01:12:18;;;;;;;0.73;0.32;;;;;;;;;;5034643;28;20061;-60
2023/02/18 01:14:44;;;;;;;1.38;0.45;;;;;;;;;;5034043;28;20561;-60
2023/02/18 01:17:10;;;;;;;1.48;0.50;;;;;;;;;;5034052;28;20029;-59
2023/02/18 01:19:36;;;;;;;0.82;0.30;;;;;;;;;;5033489;28;20083;-60
2023/02/18 01:22:02;;;;;;;0.75;0.35;;;;;;;;;;5034183;28;20104;-60
2023/02/18 01:24:28;;;;;;;1.05;0.40;;;;;;;;;;5033856;28;20025;-60
2023/02/18 01:26:54;;;;;;;1.35;0.40;;;;;;;;;;5034127;28;20025;-60
2023/02/18 01:29:20;;;;;;;0.80;0.50;;;;;;;;;;5033849;28;20033;-60
2023/02/18 01:31:46;;;;;;;0.90;0.38;;;;;;;;;;5034101;28;20393;-60
2023/02/18 01:34:12;;;;;;;0.40;0.30;;;;;;;;;;5033390;28;20022;-60
2023/02/18 01:36:38;;;;;;;0.98;0.30;;;;;;;;;;5033692;28;20379;-60
2023/02/18 01:39:05;;;;;;;0.70;0.40;;;;;;;;;;5033817;28;20024;-60
2023/02/18 01:41:31;;;;;;;1.23;0.40;;;;;;;;;;5033539;28;20018;-60
2023/02/18 01:44:12;;;;;;;0.60;0.32;;;;;;;;;;5033703;28;20113;-60
2023/02/18 01:46:38;;;;;;;0.40;0.20;;;;;;;;;;5033364;28;20022;-60
2023/02/18 01:49:05;;;;;;;0.93;0.30;;;;;;;;;;5033129;28;20029;-60
2023/02/18 01:51:33;;;;;;;1.23;0.40;;;;;;;;;;5033389;28;20064;-60
2023/02/18 01:54:02;;;;;;;1.25;0.30;;;;;;;;;;5033665;28;20056;-60
2023/02/18 01:56:36;;;;;;;1.23;0.40;;;;;;;;;;5033276;28;20025;-60
2023/02/18 01:59:05;;;;;;;0.93;0.40;;;;;;;;;;5033486;28;20104;-60
2023/02/18 02:01:31;;;;;;;1.38;0.30;;;;;;;;;;5032777;28;20473;-60
2023/02/18 02:03:57;;;;;;;1.15;0.40;;;;;;;;;;5033487;28;20017;-60
2023/02/18 02:06:24;;;;;;;0.93;0.40;;;;;;;;;;5033139;28;20079;-60
2023/02/18 02:08:53;;;;;;;0.68;0.30;;;;;;;;;;5033194;28;20449;-60
2023/02/18 02:11:29;;;;;;;0.68;0.40;;;;;;;;;;5033316;28;20449;-60
2023/02/18 02:13:55;;;;;;;0.98;0.40;;;;;;;;;;5033292;28;20034;-60
2023/02/18 02:16:21;;;;;;;0.57;0.30;;;;;;;;;;5032340;28;20100;-60
2023/02/18 02:19:06;;;;;;;0.30;0.30;;;;;;;;;;5033227;28;20029;-60
2023/02/18 02:21:37;;;;;;;0.65;0.40;;;;;;;;;;5032866;28;20029;-60
2023/02/18 02:24:36;;;;;;;0.43;0.30;;;;;;;;;;5033030;28;20032;-59
2023/02/18 02:27:07;;;;;;;0.30;0.20;;;;;;;;;;5031919;28;20053;-60
2023/02/18 02:29:39;;;;;;;0.65;0.20;;;;;;;;;;5032734;28;20017;-60
2023/02/18 02:32:16;;;;;;;1.60;0.30;;;;;;;;;;5032184;28;20193;-59
2023/02/18 02:34:42;;;;;;;1.48;0.50;;;;;;;;;;5032586;28;20052;-60
2023/02/18 02:37:14;;;;;;;0.30;0.30;;;;;;;;;;5032758;28;20068;-60
2023/02/18 02:39:43;;;;;;;0.82;0.40;;;;;;;;;;5032568;28;20449;-59
2023/02/18 02:42:21;;;;;;;0.90;0.60;;;;;;;;;;5032651;28;20030;-60
2023/02/18 02:44:51;;;;;;;0.82;0.20;;;;;;;;;;5032870;28;20029;-60
2023/02/18 02:47:20;;;;;;;0.73;0.30;;;;;;;;;;5032560;28;20021;-59
2023/02/18 02:49:52;;;;;;;0.77;0.20;;;;;;;;;;5032780;28;20033;-60
2023/02/18 02:52:23;;;;;;;0.50;0.20;;;;;;;;;;5032807;28;20457;-60
2023/02/18 02:54:49;;;;;;;0.70;0.30;;;;;;;;;;5032739;28;20025;-60
2023/02/18 02:57:15;;;;;;;1.00;0.30;;;;;;;;;;5032604;28;20513;-59
2023/02/18 02:59:42;;;;;;;0.50;0.30;;;;;;;;;;5031062;28;20024;-60
2023/02/18 03:02:27;;;;;;;0.20;0.20;;;;;;;;;;5032338;28;20058;-61
2023/02/18 03:04:59;;;;;;;0.85;0.50;;;;;;;;;;5032370;28;20021;-60
2023/02/18 03:07:35;;;;;;;0.90;0.40;;;;;;;;;;5031952;28;20064;-60
2023/02/18 03:10:20;;;;;;;0.57;0.28;;;;;;;;;;5032110;28;20067;-60
2023/02/18 03:12:56;;;;;;;0.75;0.20;;;;;;;;;;5032380;28;20442;-59
2023/02/18 03:15:35;;;;;;;0.40;0.40;;;;;;;;;;5031404;28;20030;-59
2023/02/18 03:18:06;;;;;;;0.30;0.20;;;;;;;;;;5031870;28;20062;-59
2023/02/18 03:20:36;;;;;;;0.20;0.20;;;;;;;;;;5031766;28;20021;-59
2023/02/18 03:23:05;;;;;;;0.75;0.20;;;;;;;;;;5031555;28;20053;-58
2023/02/18 03:25:32;;;;;;;0.65;0.20;;;;;;;;;;5031665;28;20119;-59
2023/02/18 03:28:02;;;;;;;0.40;0.30;;;;;;;;;;5031946;28;20120;-58
2023/02/18 03:30:32;;;;;;;1.13;0.30;;;;;;;;;;5031200;28;20034;-59
2023/02/18 03:33:02;;;;;;;1.95;0.40;;;;;;;;;;5031740;28;20448;-59
2023/02/18 03:35:28;;;;;;;0.10;0.10;;;;;;;;;;5031516;28;20025;-59
2023/02/18 03:37:59;;;;;;;0.50;0.20;;;;;;;;;;5031329;28;20486;-59
2023/02/18 03:40:26;;;;;;;0.52;0.20;;;;;;;;;;5031217;28;20518;-59
2023/02/18 03:42:52;;;;;;;0.45;0.30;;;;;;;;;;5031582;28;20371;-59
2023/02/18 03:45:18;;;;;;;1.08;0.30;;;;;;;;;;5031789;28;20021;-59
2023/02/18 03:47:44;;;;;;;0.38;0.20;;;;;;;;;;5031267;28;20033;-60
2023/02/18 03:50:10;;;;;;;0.65;0.20;;;;;;;;;;5031402;28;20580;-59
2023/02/18 03:52:36;;;;;;;1.90;0.30;;;;;;;;;;5030739;28;20041;-59
2023/02/18 03:55:03;;;;;;;0.50;0.35;;;;;;;;;;5031284;28;20072;-59
2023/02/18 03:57:29;;;;;;;0.43;0.30;;;;;;;;;;5029790;28;20436;-59
2023/02/18 03:59:55;;;;;;;0.40;0.20;;;;;;;;;;5031333;28;20021;-59
2023/02/18 04:02:21;;;;;;;0.70;0.30;;;;;;;;;;5030836;28;20385;-59
2023/02/18 04:04:47;;;;;;;0.20;0.20;;;;;;;;;;5031287;28;20075;-59
2023/02/18 04:07:13;;;;;;;0.38;0.20;;;;;;;;;;5030782;28;20033;-59
2023/02/18 04:09:39;;;;;;;0.45;0.22;;;;;;;;;;5030756;28;20047;-59
2023/02/18 04:12:05;;;;;;;0.85;0.30;;;;;;;;;;5031071;28;20030;-59
2023/02/18 04:14:31;;;;;;;0.68;0.50;;;;;;;;;;5030975;28;20021;-59
2023/02/18 04:16:57;;;;;;;0.28;0.20;;;;;;;;;;5031102;28;20074;-60
2023/02/18 04:19:23;;;;;;;0.60;0.20;;;;;;;;;;5030776;28;20100;-59
2023/02/18 04:21:49;;;;;;;0.28;0.28;;;;;;;;;;5030944;28;20025;-59
2023/02/18 04:24:15;;;;;;;0.75;0.20;;;;;;;;;;5031203;28;20029;-59
2023/02/18 04:26:41;;;;;;;0.55;0.20;;;;;;;;;;5030722;28;20029;-59
2023/02/18 04:29:07;;;;;;;0.70;0.30;;;;;;;;;;5030932;28;20063;-59
2023/02/18 04:31:33;;;;;;;0.38;0.20;;;;;;;;;;5030696;28;20117;-59
2023/02/18 04:33:59;;;;;;;0.30;0.22;;;;;;;;;;5031029;28;20037;-60
2023/02/18 04:36:25;;;;;;;0.43;0.20;;;;;;;;;;5030467;28;20025;-59
2023/02/18 04:38:51;;;;;;;0.40;0.30;;;;;;;;;;5030914;28;20504;-59
2023/02/18 04:41:17;;;;;;;0.88;0.20;;;;;;;;;;5031168;28;20091;-59
2023/02/18 04:43:43;;;;;;;1.77;0.30;;;;;;;;;;5033532;28;20072;-59
2023/02/18 04:46:09;;;;;;;0.73;0.22;;;;;;;;;;5034901;28;20037;-59
2023/02/18 04:48:35;;;;;;;0.45;0.20;;;;;;;;;;5034165;28;20531;-59
2023/02/18 04:51:01;;;;;;;3.05;0.32;;;;;;;;;;5034685;28;20049;-59
2023/02/18 04:53:27;;;;;;;0.80;0.35;;;;;;;;;;5034552;28;20021;-59
2023/02/18 04:55:53;;;;;;;0.88;0.20;;;;;;;;;;5034552;28;20036;-59
2023/02/18 04:58:20;;;;;;;1.33;0.30;;;;;;;;;;5035030;28;20377;-59
2023/02/18 05:00:46;;;;;;;0.68;0.20;;;;;;;;;;5034938;28;20030;-59
2023/02/18 05:03:12;;;;;;;2.45;0.38;;;;;;;;;;5034418;28;20087;-59
2023/02/18 05:05:38;;;;;;;3.95;0.38;;;;;;;;;;5034342;28;20104;-59
2023/02/18 05:08:04;;;;;;;0.77;0.40;;;;;;;;;;5034538;28;20060;-59
2023/02/18 05:10:30;;;;;;;2.92;0.45;;;;;;;;;;5033922;28;20489;-59
2023/02/18 05:12:56;;;;;;;2.20;0.35;;;;;;;;;;5034346;28;20044;-59
2023/02/18 05:15:22;;;;;;;2.25;0.43;;;;;;;;;;5034112;28;20029;-59
2023/02/18 05:17:48;;;;;;;1.73;0.40;;;;;;;;;;5034209;28;20109;-59
2023/02/18 05:20:14;;;;;;;2.25;0.70;;;;;;;;;;5034174;28;20017;-59
2023/02/18 05:22:40;;;;;;;2.35;0.50;;;;;;;;;;5033964;28;20715;-59
2023/02/18 05:25:06;;;;;;;3.13;0.57;;;;;;;;;;5033604;28;20045;-59
2023/02/18 05:27:32;;;;;;;2.35;0.63;;;;;;;;;;5033891;28;20389;-59
2023/02/18 05:29:58;;;;;;;2.47;0.50;;;;;;;;;;5033983;28;20018;-59
2023/02/18 05:32:24;;;;;;;1.88;0.57;;;;;;;;;;5033841;28;20033;-59
2023/02/18 05:34:50;;;;;;;1.80;0.60;;;;;;;;;;5033671;28;20033;-59
2023/02/18 05:37:17;;;;;;;3.58;1.00;;;;;;;;;;5034286;28;20481;-59
2023/02/18 05:39:43;;;;;;;2.80;0.70;;;;;;;;;;5033372;28;20572;-59
2023/02/18 05:42:09;;;;;;;2.10;0.57;;;;;;;;;;5033903;28;20029;-59
2023/02/18 05:44:35;;;;;;;3.35;0.40;;;;;;;;;;5033583;28;20441;-59
2023/02/18 05:47:06;;;;;;;2.88;0.77;;;;;;;;;;5033730;28;20028;-59
2023/02/18 05:49:33;;;;;;;3.85;0.70;;;;;;;;;;5033287;28;20029;-59
2023/02/18 05:51:59;;;;;;;2.85;0.52;;;;;;;;;;5033503;28;20091;-59
2023/02/18 05:54:26;;;;;;;3.03;0.70;;;;;;;;;;5032608;28;20053;-59
2023/02/18 05:56:52;;;;;;;4.35;0.73;;;;;;;;;;5033720;28;20029;-59
2023/02/18 05:59:18;;;;;;;5.10;0.73;;;;;;;;;;5033797;28;20419;-59
2023/02/18 06:01:44;;;;;;;4.15;1.30;;;;;;;;;;5032790;28;20028;-59
2023/02/18 06:04:10;;;;;;;3.85;0.85;;;;;;;;;;5033444;28;20483;-59
2023/02/18 06:06:36;;;;;;;4.38;0.68;;;;;;;;;;5033162;28;20033;-59
2023/02/18 06:09:02;;;;;;;4.10;0.80;;;;;;;;;;5033163;28;20038;-59
2023/02/18 06:11:28;;;;;;;3.33;0.70;;;;;;;;;;5033042;28;20481;-59
2023/02/18 06:13:54;;;;;;;3.17;0.60;;;;;;;;;;5033271;28;20028;-58
2023/02/18 06:16:20;;;;;;;5.03;0.90;;;;;;;;;;5032379;28;20120;-59
2023/02/18 06:18:46;;;;;;;5.93;0.90;;;;;;;;;;5033409;28;20022;-58
2023/02/18 06:21:12;;;;;;;3.33;0.73;;;;;;;;;;5033077;28;20025;-60
2023/02/18 06:23:38;;;;;;;4.60;1.00;;;;;;;;;;5032400;28;20033;-60
2023/02/18 06:26:04;;;;;;;2.83;0.52;;;;;;;;;;5033185;28;20470;-59
2023/02/18 06:28:30;;;;;;;4.40;1.00;;;;;;;;;;5032823;28;20080;-59
2023/02/18 06:30:56;;;;;;;2.92;0.70;;;;;;;;;;5032860;28;20041;-59
2023/02/18 06:33:22;;;;;;;5.80;1.20;;;;;;;;;;5032706;28;20021;-59
2023/02/18 06:35:55;;;;;;;2.88;0.60;;;;;;;;;;5032593;28;20025;-59
2023/02/18 06:38:21;;;;;;;4.72;0.90;;;;;;;;;;5032527;28;20438;-59
2023/02/18 06:40:47;;;;;;;3.25;0.70;;;;;;;;;;5033062;28;20087;-59
2023/02/18 06:43:13;;;;;;;4.75;1.05;;;;;;;;;;5032282;28;20033;-59
2023/02/18 06:45:39;;;;;;;3.88;0.85;;;;;;;;;;5032463;28;20466;-59
2023/02/18 06:48:05;;;;;;;3.47;0.70;;;;;;;;;;5032051;28;20459;-59
2023/02/18 06:50:31;;;;;;;5.38;1.05;;;;;;;;;;5032285;28;20061;-59
2023/02/18 06:52:58;;;;;;;3.75;0.98;;;;;;;;;;5032486;28;20048;-59
2023/02/18 06:55:24;;;;;;;5.97;1.58;;;;;;;;;;5032260;28;20029;-59
2023/02/18 06:57:50;;;;;;;5.35;0.90;;;;;;;;;;5032435;28;20022;-60
2023/02/18 07:00:16;;;;;;;6.03;1.15;;;;;;;;;;5032674;28;20048;-59
2023/02/18 07:02:42;;;;;;;4.40;0.80;;;;;;;;;;5031650;28;20029;-59
2023/02/18 07:05:08;;;;;;;4.30;1.00;;;;;;;;;;5032127;28;20026;-59
2023/02/18 07:07:35;;;;;;;8.48;0.95;;;;;;;;;;5032058;28;20493;-59
2023/02/18 07:10:01;;;;;;;5.20;1.15;;;;;;;;;;5032047;28;20029;-59
2023/02/18 07:12:27;;;;;;;2.38;0.63;;;;;;;;;;5031971;28;20045;-59
2023/02/18 07:14:53;;;;;;;4.90;1.48;;;;;;;;;;5032146;28;20092;-59
2023/02/18 07:17:19;;;;;;;2.97;0.80;;;;;;;;;;5031973;28;20485;-59
2023/02/18 07:19:45;;;;;;;5.72;1.17;;;;;;;;;;5032301;28;20052;-59
2023/02/18 07:22:11;;;;;;;7.18;1.48;;;;;;;;;;5032210;28;20029;-59
2023/02/18 07:24:37;;;;;;;6.07;0.98;;;;;;;;;;5031790;28;20098;-59
2023/02/18 07:27:03;;;;;;;4.15;1.08;;;;;;;;;;5031979;28;20018;-59
2023/02/18 07:29:29;;;;;;;4.13;1.20;;;;;;;;;;5031768;28;20029;-59
2023/02/18 07:31:55;;;;;;;6.40;1.20;;;;;;;;;;5031226;28;20399;-59
2023/02/18 07:34:21;;;;;;;6.03;1.02;;;;;;;;;;5031560;28;20045;-58
2023/02/18 07:36:47;;;;;;;4.00;1.00;;;;;;;;;;5032000;28;20025;-59
2023/02/18 07:39:13;;;;;;;4.53;1.08;;;;;;;;;;5031671;28;20489;-59
2023/02/18 07:41:39;;;;;;;3.45;0.95;;;;;;;;;;5031386;28;20097;-58
2023/02/18 07:44:05;;;;;;;2.80;0.82;;;;;;;;;;5031637;28;20462;-59
2023/02/18 07:46:31;;;;;;;4.18;0.80;;;;;;;;;;5030964;28;20029;-59
2023/02/18 07:48:57;;;;;;;3.72;0.93;;;;;;;;;;5031628;28;20445;-59
2023/02/18 07:51:24;;;;;;;3.00;0.70;;;;;;;;;;5031344;28;20068;-59
2023/02/18 07:53:50;;;;;;;5.93;1.23;;;;;;;;;;5031900;28;20431;-59
2023/02/18 07:56:17;;;;;;;4.03;1.05;;;;;;;;;;5031784;28;20037;-59
2023/02/18 07:58:43;;;;;;;3.67;0.80;;;;;;;;;;5030313;28;20025;-58
2023/02/18 08:01:11;;;;;;;4.72;1.15;;;;;;;;;;5031063;28;20021;-59
2023/02/18 08:03:37;;;;;;;3.70;1.08;;;;;;;;;;5031047;28;20025;-59
2023/02/18 08:06:04;;;;;;;5.22;1.42;;;;;;;;;;5031362;28;20486;-60
2023/02/18 08:08:31;;;;;;;4.38;1.15;;;;;;;;;;5031102;28;20048;-59
2023/02/18 08:11:01;;;;;;;3.20;0.68;;;;;;;;;;5031272;28;20583;-59
2023/02/18 08:13:27;;;;;;;6.32;1.30;;;;;;;;;;5030910;28;20079;-59
2023/02/18 08:15:54;;;;;;;3.38;0.80;;;;;;;;;;5030611;28;20064;-59
2023/02/18 08:18:22;;;;;;;3.10;0.63;;;;;;;;;;5030799;28;20040;-59
2023/02/18 08:20:48;;;;;;;3.17;0.98;;;;;;;;;;5031505;28;20017;-59
2023/02/18 08:23:15;;;;;;;4.82;0.80;;;;;;;;;;5031259;28;20037;-59
2023/02/18 08:25:44;;;;;;;3.35;0.90;;;;;;;;;;5030424;28;20627;-59
2023/02/18 08:28:10;;;;;;;6.65;0.85;;;;;;;;;;5029180;28;20368;-59
2023/02/18 08:30:36;;;;;;;5.35;1.00;;;;;;;;;;5029768;28;20472;-59
2023/02/18 08:33:02;;;;;;;4.03;1.00;;;;;;;;;;5031018;28;20030;-58
2023/02/18 08:35:28;;;;;;;9.82;1.38;;;;;;;;;;5030924;28;20021;-59
2023/02/18 08:37:54;;;;;;;3.40;0.68;;;;;;;;;;5030903;28;20117;-60
2023/02/18 08:40:20;;;;;;;5.03;1.60;;;;;;;;;;5031095;28;20021;-59
2023/02/18 08:42:46;;;;;;;7.90;2.30;;;;;;;;;;5031219;28;20034;-59
2023/02/18 08:45:12;;;;;;;9.00;2.60;;;;;;;;;;5030313;28;20504;-60
2023/02/18 08:47:38;;;;;;;11.50;3.00;;;;;;;;;;5030483;28;20045;-60
2023/02/18 08:50:05;;;;;;;8.60;2.97;;;;;;;;;;5030821;28;20359;-59
2023/02/18 08:52:31;;;;;;;13.60;3.25;;;;;;;;;;5030644;28;20485;-60
2023/02/18 08:54:57;;;;;;;12.68;2.75;;;;;;;;;;5030791;28;20063;-60
2023/02/18 08:57:23;;;;;;;10.48;2.90;;;;;;;;;;5030559;28;20033;-60
2023/02/18 08:59:49;;;;;;;11.57;2.90;;;;;;;;;;5030587;28;20021;-60
2023/02/18 09:02:15;;;;;;;7.43;3.17;;;;;;;;;;5029993;28;20036;-60
2023/02/18 09:04:40;;;;;;;9.15;3.28;;;;;;;;;;5029560;28;20030;-60
2023/02/18 09:07:06;;;;;;;10.55;3.50;;;;;;;;;;5028869;28;20076;-63
2023/02/18 09:09:32;;;;;;;11.25;3.08;;;;;;;;;;5028436;28;20406;-61
2023/02/18 09:11:58;;;;;;;6.90;2.95;;;;;;;;;;5028703;28;20042;-60
2023/02/18 09:14:25;;;;;;;8.82;2.83;;;;;;;;;;5028748;28;20017;-60
2023/02/18 09:16:51;;;;;;;11.50;3.65;;;;;;;;;;5029619;28;20092;-60
2023/02/18 09:19:18;;;;;;;9.77;3.20;;;;;;;;;;5030124;28;20061;-60
2023/02/18 09:21:44;;;;;;;7.32;2.78;;;;;;;;;;5029192;28;20033;-60
2023/02/18 09:24:10;;;;;;;8.43;2.78;;;;;;;;;;5029802;28;20026;-61
2023/02/18 09:26:36;;;;;;;9.05;3.00;;;;;;;;;;5028642;28;20104;-60
2023/02/18 09:29:02;;;;;;;9.70;2.80;;;;;;;;;;5029580;28;20076;-64
2023/02/18 09:31:28;;;;;;;8.98;2.90;;;;;;;;;;5031209;28;20045;-63
2023/02/18 09:33:55;;;;;;;10.60;2.90;;;;;;;;;;5046122;28;20025;-64
2023/02/18 09:36:21;;;;;;;8.75;2.70;;;;;;;;;;5034059;28;20075;-62
2023/02/18 09:38:48;;;;;;;9.30;2.63;;;;;;;;;;5050110;28;20014;-62
2023/02/18 09:41:22;;;;;;;8.88;2.47;;;;;;;;;;5040470;28;20083;-62
2023/02/18 09:43:50;;;;;;;8.23;2.50;;;;;;;;;;5040300;28;20036;-61
2023/02/18 09:46:16;;;;;;;9.35;2.42;;;;;;;;;;5044411;28;20033;-61
2023/02/18 09:48:44;;;;;;;10.63;1.88;;;;;;;;;;5032917;28;20032;-61
2023/02/18 09:51:12;;;;;;;7.32;2.00;;;;;;;;;;5031732;28;20964;-61
2023/02/18 09:53:38;;;;;;;7.00;1.80;;;;;;;;;;5032665;28;20124;-62
2023/02/18 09:56:06;;;;;;;6.13;1.85;;;;;;;;;;5032634;28;20541;-61
2023/02/18 09:58:32;;;;;;;7.60;2.10;;;;;;;;;;5031865;28;20030;-61
2023/02/18 10:01:07;;;;;;;6.90;2.25;;;;;;;;;;5032702;28;20077;-61
2023/02/18 10:03:33;;;;;;;6.88;1.23;;;;;;;;;;5032301;28;20041;-61
2023/02/18 10:06:03;;;;;;;7.95;1.50;;;;;;;;;;5044120;28;20395;-60
2023/02/18 10:08:35;;;;;;;7.43;1.80;;;;;;;;;;5052755;28;20456;-60
2023/02/18 10:11:01;;;;;;;4.60;1.40;;;;;;;;;;5053407;28;20029;-60
2023/02/18 10:13:31;;;;;;;8.15;2.22;;;;;;;;;;5051813;28;20420;-61
2023/02/18 10:15:58;;;;;;;7.95;1.63;;;;;;;;;;5053417;28;20049;-60
2023/02/18 10:18:25;;;;;;;5.85;1.70;;;;;;;;;;5052972;28;20028;-60
2023/02/18 10:20:52;;;;;;;5.10;1.30;;;;;;;;;;5053034;28;20096;-60
2023/02/18 10:23:19;;;;;;;5.93;1.95;;;;;;;;;;5053446;28;20035;-61
2023/02/18 10:25:46;;;;;;;6.03;1.60;;;;;;;;;;5053444;28;20504;-61
2023/02/18 10:28:12;;;;;;;5.13;1.33;;;;;;;;;;5053198;28;20082;-60
2023/02/18 10:30:38;;;;;;;5.88;1.40;;;;;;;;;;5052697;28;20025;-61
2023/02/18 10:33:22;;;;;;;6.65;1.48;;;;;;;;;;5052962;28;20033;-60
2023/02/18 10:35:53;;;;;;;7.03;1.45;;;;;;;;;;5053441;28;20021;-61
2023/02/18 10:38:18;;;;;;;5.97;1.33;;;;;;;;;;5053301;28;20052;-61
2023/02/18 10:40:48;;;;;;;5.35;1.30;;;;;;;;;;5052327;28;20068;-61
2023/02/18 10:43:32;;;;;;;6.22;1.60;;;;;;;;;;5052634;28;20477;-60
2023/02/18 10:46:04;;;;;;;5.93;1.52;;;;;;;;;;5052675;28;20539;-60
2023/02/18 10:48:46;;;;;;;7.45;1.70;;;;;;;;;;5052482;28;20100;-59
2023/02/18 10:51:26;;;;;;;4.00;1.10;;;;;;;;;;5052639;28;20067;-60
2023/02/18 10:53:53;;;;;;;4.75;1.10;;;;;;;;;;5052753;28;20025;-60
2023/02/18 10:56:39;;;;;;;5.88;1.35;;;;;;;;;;5052733;28;20025;-60
2023/02/18 10:59:10;;;;;;;5.03;1.42;;;;;;;;;;5052477;28;20031;-62
2023/02/18 11:01:36;;;;;;;4.97;1.50;;;;;;;;;;5052069;28;20025;-60
2023/02/18 11:04:07;;;;;;;6.13;1.60;;;;;;;;;;5052503;28;20025;-60
2023/02/18 11:06:37;;;;;;;5.18;1.00;;;;;;;;;;5052183;28;20028;-60
2023/02/18 11:09:04;;;;;;;6.28;1.70;;;;;;;;;;5052098;28;20461;-60
2023/02/18 11:11:31;;;;;;;5.82;1.40;;;;;;;;;;5052002;28;20401;-62
2023/02/18 11:13:59;;;;;;;6.07;1.10;;;;;;;;;;5052258;28;20024;-60
2023/02/18 11:16:38;;;;;;;4.97;1.17;;;;;;;;;;5051974;28;20131;-63
2023/02/18 11:19:04;;;;;;;5.72;1.20;;;;;;;;;;5052053;28;20028;-60
2023/02/18 11:21:30;;;;;;;9.40;2.03;;;;;;;;;;5051854;28;20104;-61
2023/02/18 11:23:57;;;;;;;4.65;1.10;;;;;;;;;;5051817;28;20032;-62
2023/02/18 11:26:43;;;;;;;4.82;0.90;;;;;;;;;;5051885;28;20025;-62
2023/02/18 11:29:15;;;;;;;5.03;1.10;;;;;;;;;;5051898;28;20044;-62
2023/02/18 11:31:43;;;;;;;6.80;1.38;;;;;;;;;;5051603;28;20490;-62
2023/02/18 11:34:20;;;;;;;6.32;1.33;;;;;;;;;;5051901;28;20029;-62
2023/02/18 11:36:47;;;;;;;5.35;1.02;;;;;;;;;;5052162;28;20041;-62
2023/02/18 11:39:25;;;;;;;4.25;1.13;;;;;;;;;;5051794;28;20029;-62
2023/02/18 11:41:56;;;;;;;4.90;1.08;;;;;;;;;;5051814;28;20078;-60
2023/02/18 11:44:26;;;;;;;3.85;0.98;;;;;;;;;;5051214;28;20029;-59
2023/02/18 11:47:11;;;;;;;7.10;1.25;;;;;;;;;;5051811;28;20067;-60
2023/02/18 11:49:37;;;;;;;5.22;1.00;;;;;;;;;;5051179;28;20372;-62
2023/02/18 11:52:09;;;;;;;5.13;0.90;;;;;;;;;;5039429;28;20045;-62
2023/02/18 11:54:35;;;;;;;5.50;1.02;;;;;;;;;;5030661;28;20406;-62
2023/02/18 11:57:03;;;;;;;4.03;1.40;;;;;;;;;;5031638;28;20076;-62
2023/02/18 11:59:31;;;;;;;8.30;1.27;;;;;;;;;;5040838;28;20399;-62
2023/02/18 12:02:02;;;;;;;5.93;1.20;;;;;;;;;;5028791;28;20032;-62
2023/02/18 12:04:31;;;;;;;5.22;1.20;;;;;;;;;;5035350;28;20060;-59
2023/02/18 12:07:06;;;;;;;4.25;1.23;;;;;;;;;;5031083;28;20474;-62
2023/02/18 12:09:40;;;;;;;4.25;0.90;;;;;;;;;;5037730;28;20082;-62
2023/02/18 12:12:11;;;;;;;4.90;0.90;;;;;;;;;;5036856;28;20125;-62
2023/02/18 12:14:38;;;;;;;2.53;0.90;;;;;;;;;;5030896;28;20558;-62
2023/02/18 12:17:22;;;;;;;6.05;1.10;;;;;;;;;;5031382;28;20022;-62
2023/02/18 12:19:54;;;;;;;6.35;0.90;;;;;;;;;;5031684;28;20021;-62
2023/02/18 12:22:20;;;;;;;4.55;1.23;;;;;;;;;;5031113;28;20421;-62
2023/02/18 12:24:58;;;;;;;6.90;1.55;;;;;;;;;;5031530;28;20040;-62
2023/02/18 12:27:43;;;;;;;9.18;1.00;;;;;;;;;;5031017;28;20452;-62
2023/02/18 12:30:27;;;;;;;5.28;1.02;;;;;;;;;;5030977;28;20048;-62
2023/02/18 12:33:05;;;;;;;5.45;1.15;;;;;;;;;;5031200;28;20026;-62
2023/02/18 12:35:49;;;;;;;7.18;1.17;;;;;;;;;;5030726;28;20029;-61
2023/02/18 12:38:44;;;;;;;7.10;1.58;;;;;;;;;;5030039;28;20028;-61
2023/02/18 12:41:10;;;;;;;6.47;0.90;;;;;;;;;;5029507;28;20494;-62
2023/02/18 12:43:36;;;;;;;10.10;1.60;;;;;;;;;;5029956;28;20041;-62
2023/02/18 12:46:14;;;;;;;3.40;0.82;;;;;;;;;;5030475;28;20022;-61
2023/02/18 12:48:59;;;;;;;7.75;1.67;;;;;;;;;;5030261;28;20087;-62
2023/02/18 12:51:35;;;;;;;5.78;1.63;;;;;;;;;;5030604;28;20029;-63
2023/02/18 12:54:19;;;;;;;9.32;2.17;;;;;;;;;;5030354;28;20030;-62
2023/02/18 12:57:03;;;;;;;6.78;1.60;;;;;;;;;;5030119;28;20033;-63
2023/02/18 12:59:52;;;;;;;4.88;1.08;;;;;;;;;;5029740;28;20490;-62
2023/02/18 13:02:33;;;;;;;5.22;1.55;;;;;;;;;;5030234;28;20056;-62
2023/02/18 13:05:05;;;;;;;5.30;1.20;;;;;;;;;;5034073;28;20033;-62
2023/02/18 13:07:44;;;;;;;5.70;1.20;;;;;;;;;;5034208;28;20367;-61
2023/02/18 13:10:28;;;;;;;9.10;1.73;;;;;;;;;;5034349;28;20069;-61
2023/02/18 13:12:57;;;;;;;6.57;2.13;;;;;;;;;;5034271;28;20033;-62
2023/02/18 13:15:39;;;;;;;7.45;1.40;;;;;;;;;;5034257;28;20083;-62
2023/02/18 13:18:10;;;;;;;5.70;1.10;;;;;;;;;;5034513;28;20482;-61
2023/02/18 13:20:44;;;;;;;3.00;0.77;;;;;;;;;;5034239;28;20040;-62
2023/02/18 13:23:22;;;;;;;2.85;1.00;;;;;;;;;;5033699;28;20089;-61
2023/02/18 13:25:51;;;;;;;4.47;1.50;;;;;;;;;;5034561;28;20104;-62
2023/02/18 13:28:26;;;;;;;5.25;1.48;;;;;;;;;;5034552;28;20025;-62
2023/02/18 13:31:01;;;;;;;4.55;1.15;;;;;;;;;;5034330;28;20040;-62
2023/02/18 13:33:45;;;;;;;5.47;1.40;;;;;;;;;;5033138;28;20457;-61
2023/02/18 13:36:26;;;;;;;4.32;0.85;;;;;;;;;;5031913;28;20298;-62
2023/02/18 13:39:18;;;;;;;5.07;1.40;;;;;;;;;;5033939;28;20083;-61
2023/02/18 13:41:45;;;;;;;5.25;1.13;;;;;;;;;;5033617;28;20099;-61
2023/02/18 13:44:23;;;;;;;3.78;1.13;;;;;;;;;;5033930;28;20056;-62
2023/02/18 13:46:49;;;;;;;5.60;1.60;;;;;;;;;;5034010;28;20137;-61
2023/02/18 13:49:20;;;;;;;4.40;1.23;;;;;;;;;;5034147;28;20026;-63
2023/02/18 13:51:48;;;;;;;4.63;1.02;;;;;;;;;;5033644;28;20045;-62
2023/02/18 13:54:16;;;;;;;6.40;1.10;;;;;;;;;;5030867;28;20033;-61
2023/02/18 13:56:45;;;;;;;5.72;1.20;;;;;;;;;;5032940;28;20084;-62
2023/02/18 13:59:19;;;;;;;5.35;1.23;;;;;;;;;;5033722;28;20017;-64
2023/02/18 14:01:50;;;;;;;5.78;1.40;;;;;;;;;;5034068;28;20128;-63
2023/02/18 14:04:35;;;;;;;6.13;1.30;;;;;;;;;;5033902;28;20025;-63
2023/02/18 14:07:19;;;;;;;9.50;2.05;;;;;;;;;;5033044;28;20048;-63
2023/02/18 14:09:45;;;;;;;4.18;1.10;;;;;;;;;;5033020;28;20030;-63
2023/02/18 14:12:17;;;;;;;8.75;1.02;;;;;;;;;;5031671;28;20056;-59
2023/02/18 14:14:44;;;;;;;4.75;1.20;;;;;;;;;;5029595;28;20025;-60
2023/02/18 14:17:19;;;;;;;4.05;1.40;;;;;;;;;;5032582;28;20881;-60
2023/02/18 14:19:54;;;;;;;4.57;1.30;;;;;;;;;;5032815;28;20504;-59
2023/02/18 14:22:29;;;;;;;6.32;1.20;;;;;;;;;;5032500;28;20428;-59
2023/02/18 14:25:00;;;;;;;5.45;1.27;;;;;;;;;;5032142;28;20035;-61
2023/02/18 14:27:26;;;;;;;5.00;1.00;;;;;;;;;;5032898;28;20036;-59
2023/02/18 14:29:53;;;;;;;8.38;1.00;;;;;;;;;;5032815;28;20029;-61
2023/02/18 14:32:20;;;;;;;7.40;1.23;;;;;;;;;;5032810;28;20076;-65
2023/02/18 14:34:49;;;;;;;4.30;1.10;;;;;;;;;;5031561;28;20029;-65
2023/02/18 14:37:15;;;;;;;8.25;1.30;;;;;;;;;;5031341;28;20026;-60
2023/02/18 14:39:47;;;;;;;3.40;1.10;;;;;;;;;;5030918;28;20022;-63
2023/02/18 14:42:32;;;;;;;5.80;1.35;;;;;;;;;;5031712;28;20067;-61
2023/02/18 14:45:04;;;;;;;4.38;1.20;;;;;;;;;;5030193;28;20057;-60
2023/02/18 14:47:33;;;;;;;3.50;0.93;;;;;;;;;;5029167;28;20028;-62
2023/02/18 14:50:02;;;;;;;3.80;1.10;;;;;;;;;;5052327;28;20040;-60
2023/02/18 14:52:28;;;;;;;7.05;1.20;;;;;;;;;;5052263;28;20458;-59
2023/02/18 14:54:54;;;;;;;4.68;1.42;;;;;;;;;;5042944;28;20061;-60